Country
Station

 

Weather  for  Villamontes  -  Bolivia    Bolivia

  
23 °C (73 °F)
    
 
 

Current METAR for Villamontes is :

SLVM 202000Z 00000KT 9999 NSC 23/12 Q1018

 

This is a report for Villamontes - Bolivia.
 
The report was made 23 minutes ago, at 20:00 UTC .
The wind was calm.
 
The temperature was 23 °C (73 °F), with a dew-point at 12 °C (54 °F).
The temperature felt like 25 °C (77 °F).
 
The atmospheric pressure was 1018 hPa (30.06 inHg).
The relative humidity was 49.9%.
 
The overall visibility was greater than 10 kilometers (6.2 miles).
 

 
 
 
 

Country :   A   B   C   D   E   F   G   H   I   J   K   L   M   N   O   P   Q   R   S   T   U   V   W   Y   Z

 

Site Info  |  Disclaimer  |  Credits  |  Privacy
Contact us  |  Add to favorites
© 2013-2019 METARs - All rights reserved